VAG658 VVDN-VVNB
Flight info
| Callsign | VAG658 |
|---|---|
| Flight time | 0h 54m |
| Altitude | 35000 |
| Route | VIDEN2G VIDEN Q2 BISON |
| Aircraft | A321/M-SDE3FGHIRWY/LB1 |
Departure
| Time | 2026-05-05 01:05 |
|---|---|
| Airport | Da Nang International Airport (VVDN) |
Arrival
| Time | 2026-05-05 02:00 |
|---|---|
| Airport | Noi Bai International Airport (VVNB) |
| Time | Latitude | Longitude | Altitude | Speed | Heading |
|---|---|---|---|---|---|
| 2026-05-05 00:54 | 16.05448 | 108.20152 | 34 ft | 0 kts | 83° |
| 2026-05-05 00:59 | 16.05446 | 108.20128 | 32 ft | 4 kts | 83° |
| 2026-05-05 00:59 | 16.05442 | 108.20100 | 31 ft | 4 kts | 83° |
| 2026-05-05 01:00 | 16.05439 | 108.20072 | 34 ft | 4 kts | 83° |
| 2026-05-05 01:00 | 16.05437 | 108.20048 | 34 ft | 4 kts | 104° |
| 2026-05-05 01:00 | 16.05450 | 108.20030 | 33 ft | 4 kts | 163° |
| 2026-05-05 01:00 | 16.05468 | 108.20026 | 32 ft | 1 kts | 172° |
| 2026-05-05 01:01 | 16.05471 | 108.20025 | 33 ft | 0 kts | 172° |
| 2026-05-05 01:02 | 16.05438 | 108.20030 | 34 ft | 22 kts | 172° |
| 2026-05-05 01:02 | 16.05179 | 108.20069 | 34 ft | 42 kts | 172° |
| 2026-05-05 01:03 | 16.04897 | 108.20110 | 33 ft | 41 kts | 172° |
| 2026-05-05 01:03 | 16.04615 | 108.20151 | 34 ft | 44 kts | 172° |
| 2026-05-05 01:03 | 16.04231 | 108.20206 | 34 ft | 64 kts | 172° |
| 2026-05-05 01:03 | 16.03807 | 108.20266 | 35 ft | 59 kts | 173° |
| 2026-05-05 01:04 | 16.03411 | 108.20324 | 34 ft | 56 kts | 172° |
| 2026-05-05 01:04 | 16.03078 | 108.20258 | 31 ft | 19 kts | 292° |
| 2026-05-05 01:04 | 16.03304 | 108.20199 | 33 ft | 67 kts | 352° |
| 2026-05-05 01:05 | 16.04001 | 108.20096 | 34 ft | 133 kts | 352° |
| 2026-05-05 01:05 | 16.05092 | 108.19938 | 105 ft | 176 kts | 352° |
| 2026-05-05 01:05 | 16.06353 | 108.19751 | 536 ft | 188 kts | 353° |
| 2026-05-05 01:05 | 16.07672 | 108.19669 | 1059 ft | 192 kts | 359° |
| 2026-05-05 01:06 | 16.09007 | 108.19652 | 1494 ft | 191 kts | 360° |
| 2026-05-05 01:06 | 16.10358 | 108.19662 | 1710 ft | 199 kts | 0° |
| 2026-05-05 01:06 | 16.11803 | 108.19700 | 1836 ft | 215 kts | 1° |
| 2026-05-05 01:06 | 16.13342 | 108.19736 | 1987 ft | 231 kts | 359° |
| 2026-05-05 01:07 | 16.15027 | 108.19709 | 2103 ft | 253 kts | 358° |
| 2026-05-05 01:07 | 16.16825 | 108.19657 | 2626 ft | 261 kts | 358° |
| 2026-05-05 01:07 | 16.18654 | 108.19600 | 3403 ft | 264 kts | 358° |
| 2026-05-05 01:07 | 16.20502 | 108.19547 | 4291 ft | 267 kts | 359° |
| 2026-05-05 01:08 | 16.22350 | 108.19498 | 5091 ft | 271 kts | 359° |
| 2026-05-05 01:08 | 16.24249 | 108.19451 | 5858 ft | 275 kts | 359° |
| 2026-05-05 01:08 | 16.26174 | 108.19408 | 6588 ft | 279 kts | 359° |
| 2026-05-05 01:08 | 16.28134 | 108.19367 | 7307 ft | 282 kts | 359° |
| 2026-05-05 01:09 | 16.30108 | 108.19325 | 8019 ft | 285 kts | 359° |
| 2026-05-05 01:09 | 16.32100 | 108.19282 | 8731 ft | 288 kts | 359° |
| 2026-05-05 01:09 | 16.34102 | 108.19110 | 9405 ft | 291 kts | 348° |
| 2026-05-05 01:09 | 16.36089 | 108.18660 | 10080 ft | 294 kts | 347° |
| 2026-05-05 01:10 | 16.38151 | 108.18188 | 10306 ft | 315 kts | 347° |
| 2026-05-05 01:10 | 16.40368 | 108.17679 | 10427 ft | 337 kts | 347° |
| 2026-05-05 01:10 | 16.42726 | 108.17139 | 10544 ft | 357 kts | 347° |
| 2026-05-05 01:10 | 16.45216 | 108.16573 | 10663 ft | 375 kts | 347° |
| 2026-05-05 01:11 | 16.47823 | 108.15981 | 10779 ft | 392 kts | 347° |
| 2026-05-05 01:11 | 16.50528 | 108.15367 | 11023 ft | 403 kts | 347° |
| 2026-05-05 01:11 | 16.53271 | 108.14688 | 11487 ft | 408 kts | 342° |
| 2026-05-05 01:11 | 16.55878 | 108.13511 | 11979 ft | 411 kts | 330° |
| 2026-05-05 01:12 | 16.58204 | 108.11765 | 12492 ft | 414 kts | 317° |
| 2026-05-05 01:12 | 16.60133 | 108.09527 | 13041 ft | 417 kts | 305° |
| 2026-05-05 01:12 | 16.61577 | 108.06899 | 13603 ft | 419 kts | 294° |
| 2026-05-05 01:12 | 16.62788 | 108.04125 | 14111 ft | 422 kts | 294° |
| 2026-05-05 01:13 | 16.64012 | 108.01333 | 14571 ft | 425 kts | 294° |
| 2026-05-05 01:13 | 16.65244 | 107.98525 | 15037 ft | 427 kts | 294° |
| 2026-05-05 01:13 | 16.66487 | 107.95693 | 15495 ft | 431 kts | 294° |
| 2026-05-05 01:13 | 16.67738 | 107.92844 | 15931 ft | 434 kts | 294° |
| 2026-05-05 01:14 | 16.68997 | 107.89977 | 16365 ft | 436 kts | 294° |
| 2026-05-05 01:14 | 16.70265 | 107.87086 | 16785 ft | 439 kts | 294° |
| 2026-05-05 01:14 | 16.71536 | 107.84178 | 17199 ft | 442 kts | 294° |
| 2026-05-05 01:14 | 16.72812 | 107.81252 | 17606 ft | 445 kts | 294° |
| 2026-05-05 01:15 | 16.74098 | 107.78296 | 18004 ft | 447 kts | 294° |
| 2026-05-05 01:15 | 16.75391 | 107.75321 | 18401 ft | 450 kts | 294° |
| 2026-05-05 01:15 | 16.76670 | 107.72381 | 18739 ft | 452 kts | 294° |
| 2026-05-05 01:15 | 16.77974 | 107.69386 | 19079 ft | 454 kts | 294° |
| 2026-05-05 01:16 | 16.79285 | 107.66386 | 19426 ft | 455 kts | 294° |
| 2026-05-05 01:16 | 16.80601 | 107.63376 | 19756 ft | 457 kts | 294° |
| 2026-05-05 01:16 | 16.81922 | 107.60350 | 20078 ft | 458 kts | 294° |
| 2026-05-05 01:16 | 16.83244 | 107.57310 | 20401 ft | 460 kts | 293° |
| 2026-05-05 01:17 | 16.84563 | 107.54263 | 20725 ft | 462 kts | 293° |
| 2026-05-05 01:17 | 16.85888 | 107.51199 | 21032 ft | 463 kts | 293° |
| 2026-05-05 01:17 | 16.87257 | 107.48143 | 21339 ft | 466 kts | 297° |
| 2026-05-05 01:17 | 16.89024 | 107.45303 | 21641 ft | 468 kts | 307° |
| 2026-05-05 01:18 | 16.91250 | 107.42811 | 21913 ft | 472 kts | 317° |
| 2026-05-05 01:18 | 16.93884 | 107.40750 | 22193 ft | 476 kts | 327° |
| 2026-05-05 01:18 | 16.96832 | 107.39148 | 22499 ft | 479 kts | 333° |
| 2026-05-05 01:18 | 16.99856 | 107.37666 | 22814 ft | 480 kts | 333° |
| 2026-05-05 01:19 | 17.02882 | 107.36174 | 23144 ft | 482 kts | 333° |
| 2026-05-05 01:19 | 17.05909 | 107.34662 | 23444 ft | 483 kts | 332° |
| 2026-05-05 01:19 | 17.08941 | 107.33129 | 23694 ft | 485 kts | 332° |
| 2026-05-05 01:19 | 17.11941 | 107.31605 | 23914 ft | 486 kts | 332° |
| 2026-05-05 01:20 | 17.14993 | 107.30057 | 24134 ft | 487 kts | 332° |
| 2026-05-05 01:20 | 17.18036 | 107.28515 | 24435 ft | 486 kts | 332° |
| 2026-05-05 01:20 | 17.21083 | 107.26975 | 24754 ft | 485 kts | 332° |
| 2026-05-05 01:20 | 17.24124 | 107.25444 | 25071 ft | 484 kts | 332° |
| 2026-05-05 01:21 | 17.27161 | 107.23919 | 25393 ft | 483 kts | 332° |
| 2026-05-05 01:21 | 17.30189 | 107.22395 | 25718 ft | 482 kts | 332° |
| 2026-05-05 01:21 | 17.33205 | 107.20873 | 26047 ft | 481 kts | 332° |
| 2026-05-05 01:21 | 17.36221 | 107.19349 | 26413 ft | 479 kts | 332° |
| 2026-05-05 01:22 | 17.39220 | 107.17831 | 26767 ft | 477 kts | 332° |
| 2026-05-05 01:22 | 17.42205 | 107.16318 | 27111 ft | 476 kts | 332° |
| 2026-05-05 01:22 | 17.45150 | 107.14828 | 27451 ft | 475 kts | 332° |
| 2026-05-05 01:22 | 17.48129 | 107.13323 | 27793 ft | 474 kts | 332° |
| 2026-05-05 01:23 | 17.51097 | 107.11824 | 28139 ft | 473 kts | 332° |
| 2026-05-05 01:23 | 17.54065 | 107.10327 | 28487 ft | 472 kts | 332° |
| 2026-05-05 01:23 | 17.57021 | 107.08834 | 28835 ft | 471 kts | 332° |
| 2026-05-05 01:23 | 17.59979 | 107.07334 | 29187 ft | 470 kts | 332° |
| 2026-05-05 01:24 | 17.62929 | 107.05835 | 29543 ft | 469 kts | 332° |
| 2026-05-05 01:24 | 17.65864 | 107.04345 | 29895 ft | 469 kts | 332° |
| 2026-05-05 01:24 | 17.68796 | 107.02859 | 30217 ft | 468 kts | 332° |
| 2026-05-05 01:24 | 17.71721 | 107.01378 | 30533 ft | 466 kts | 332° |
| 2026-05-05 01:25 | 17.74636 | 106.99902 | 30850 ft | 465 kts | 332° |
| 2026-05-05 01:25 | 17.77548 | 106.98431 | 30975 ft | 464 kts | 332° |
| 2026-05-05 01:25 | 17.83319 | 106.95509 | 31005 ft | 463 kts | 332° |
| 2026-05-05 01:26 | 17.89153 | 106.92538 | 31004 ft | 463 kts | 332° |
| 2026-05-05 01:26 | 17.94911 | 106.89624 | 31005 ft | 463 kts | 332° |
| 2026-05-05 01:27 | 18.00721 | 106.86703 | 31011 ft | 463 kts | 332° |
| 2026-05-05 01:27 | 18.06524 | 106.83784 | 31011 ft | 463 kts | 332° |
| 2026-05-05 01:28 | 18.12330 | 106.80858 | 31010 ft | 463 kts | 332° |
| 2026-05-05 01:28 | 18.18133 | 106.77925 | 31011 ft | 463 kts | 332° |
| 2026-05-05 01:29 | 18.23936 | 106.74986 | 31013 ft | 463 kts | 332° |
| 2026-05-05 01:29 | 18.29738 | 106.72053 | 31013 ft | 463 kts | 332° |
| 2026-05-05 01:30 | 18.35543 | 106.69115 | 31011 ft | 463 kts | 332° |
| 2026-05-05 01:30 | 18.41344 | 106.66179 | 31014 ft | 462 kts | 332° |
| 2026-05-05 01:31 | 18.47130 | 106.63244 | 31010 ft | 461 kts | 332° |
| 2026-05-05 01:31 | 18.52909 | 106.60305 | 31016 ft | 461 kts | 332° |
| 2026-05-05 01:32 | 18.58690 | 106.57367 | 31016 ft | 461 kts | 332° |
| 2026-05-05 01:32 | 18.64454 | 106.54467 | 31016 ft | 461 kts | 332° |
| 2026-05-05 01:33 | 18.70249 | 106.51554 | 31017 ft | 461 kts | 332° |
| 2026-05-05 01:33 | 18.76030 | 106.48637 | 31015 ft | 460 kts | 332° |
| 2026-05-05 01:34 | 18.81794 | 106.45724 | 31016 ft | 459 kts | 332° |
| 2026-05-05 01:34 | 18.87559 | 106.42803 | 31016 ft | 459 kts | 332° |
| 2026-05-05 01:35 | 18.93318 | 106.39879 | 31015 ft | 459 kts | 332° |
| 2026-05-05 01:35 | 18.99090 | 106.36973 | 31016 ft | 459 kts | 332° |
| 2026-05-05 01:36 | 19.04868 | 106.34079 | 31015 ft | 459 kts | 332° |
| 2026-05-05 01:36 | 19.10639 | 106.31177 | 31018 ft | 459 kts | 332° |
| 2026-05-05 01:37 | 19.16404 | 106.28260 | 31021 ft | 459 kts | 332° |
| 2026-05-05 01:37 | 19.22161 | 106.25341 | 31024 ft | 459 kts | 332° |
| 2026-05-05 01:38 | 19.26953 | 106.22919 | 31024 ft | 459 kts | 332° |
| 2026-05-05 01:38 | 19.32723 | 106.20011 | 31024 ft | 459 kts | 332° |
| 2026-05-05 01:39 | 19.38480 | 106.17099 | 31021 ft | 459 kts | 332° |
| 2026-05-05 01:39 | 19.44235 | 106.14179 | 31020 ft | 456 kts | 331° |
| 2026-05-05 01:40 | 19.49921 | 106.11301 | 31024 ft | 456 kts | 331° |
| 2026-05-05 01:40 | 19.55645 | 106.08409 | 31024 ft | 456 kts | 332° |
| 2026-05-05 01:41 | 19.61384 | 106.05534 | 31033 ft | 456 kts | 332° |
| 2026-05-05 01:41 | 19.67124 | 106.02656 | 31032 ft | 456 kts | 332° |
| 2026-05-05 01:42 | 19.72861 | 105.99780 | 31032 ft | 456 kts | 332° |
| 2026-05-05 01:42 | 19.78591 | 105.96903 | 31034 ft | 455 kts | 331° |
| 2026-05-05 01:43 | 19.84312 | 105.94020 | 31035 ft | 455 kts | 331° |
| 2026-05-05 01:43 | 19.90024 | 105.91132 | 31043 ft | 455 kts | 331° |
| 2026-05-05 01:44 | 19.95779 | 105.88228 | 30751 ft | 461 kts | 331° |
| 2026-05-05 01:44 | 19.98679 | 105.86767 | 30524 ft | 461 kts | 331° |
| 2026-05-05 01:44 | 20.01575 | 105.85307 | 30298 ft | 460 kts | 331° |
| 2026-05-05 01:45 | 20.04461 | 105.83851 | 30068 ft | 459 kts | 331° |
| 2026-05-05 01:45 | 20.07345 | 105.82393 | 29799 ft | 458 kts | 331° |
| 2026-05-05 01:45 | 20.10227 | 105.80935 | 28888 ft | 461 kts | 331° |
| 2026-05-05 01:45 | 20.13066 | 105.79499 | 28464 ft | 451 kts | 331° |
| 2026-05-05 01:46 | 20.15874 | 105.78081 | 28019 ft | 443 kts | 331° |
| 2026-05-05 01:46 | 20.18683 | 105.76661 | 27431 ft | 438 kts | 331° |
| 2026-05-05 01:46 | 20.21381 | 105.75295 | 26836 ft | 434 kts | 331° |
| 2026-05-05 01:46 | 20.24103 | 105.73917 | 26040 ft | 435 kts | 331° |
| 2026-05-05 01:47 | 20.26873 | 105.72511 | 24929 ft | 445 kts | 331° |
| 2026-05-05 01:47 | 20.29682 | 105.71087 | 24093 ft | 447 kts | 332° |
| 2026-05-05 01:47 | 20.32492 | 105.69665 | 23346 ft | 446 kts | 332° |
| 2026-05-05 01:47 | 20.35284 | 105.68250 | 22572 ft | 443 kts | 332° |
| 2026-05-05 01:48 | 20.38054 | 105.66848 | 21856 ft | 438 kts | 332° |
| 2026-05-05 01:48 | 20.40801 | 105.65467 | 21158 ft | 435 kts | 334° |
| 2026-05-05 01:48 | 20.43651 | 105.64429 | 20487 ft | 434 kts | 343° |
| 2026-05-05 01:48 | 20.46644 | 105.63906 | 19609 ft | 438 kts | 353° |
| 2026-05-05 01:49 | 20.49679 | 105.63694 | 18866 ft | 436 kts | 353° |
| 2026-05-05 01:49 | 20.52698 | 105.63484 | 18163 ft | 432 kts | 353° |
| 2026-05-05 01:49 | 20.55685 | 105.63272 | 17421 ft | 428 kts | 353° |
| 2026-05-05 01:49 | 20.58635 | 105.63059 | 16736 ft | 423 kts | 354° |
| 2026-05-05 01:50 | 20.61565 | 105.62846 | 16102 ft | 419 kts | 353° |
| 2026-05-05 01:50 | 20.64461 | 105.62633 | 15423 ft | 416 kts | 354° |
| 2026-05-05 01:50 | 20.67342 | 105.62422 | 14800 ft | 413 kts | 354° |
| 2026-05-05 01:50 | 20.70163 | 105.62220 | 14228 ft | 410 kts | 354° |
| 2026-05-05 01:51 | 20.72998 | 105.62018 | 13633 ft | 406 kts | 354° |
| 2026-05-05 01:51 | 20.75817 | 105.61818 | 12987 ft | 402 kts | 354° |
| 2026-05-05 01:51 | 20.78594 | 105.61619 | 12347 ft | 398 kts | 354° |
| 2026-05-05 01:51 | 20.81351 | 105.61419 | 11699 ft | 394 kts | 354° |
| 2026-05-05 01:52 | 20.84079 | 105.61217 | 11061 ft | 391 kts | 354° |
| 2026-05-05 01:52 | 20.86781 | 105.61017 | 10441 ft | 387 kts | 354° |
| 2026-05-05 01:52 | 20.89413 | 105.60823 | 10265 ft | 369 kts | 354° |
| 2026-05-05 01:52 | 20.91911 | 105.60641 | 10147 ft | 351 kts | 354° |
| 2026-05-05 01:53 | 20.94278 | 105.60469 | 9713 ft | 345 kts | 354° |
| 2026-05-05 01:53 | 20.96706 | 105.60291 | 8887 ft | 351 kts | 354° |
| 2026-05-05 01:53 | 20.99139 | 105.60110 | 8246 ft | 351 kts | 354° |
| 2026-05-05 01:53 | 21.01576 | 105.59931 | 7562 ft | 351 kts | 355° |
| 2026-05-05 01:54 | 21.03978 | 105.59756 | 6908 ft | 337 kts | 355° |
| 2026-05-05 01:54 | 21.06255 | 105.59594 | 6269 ft | 319 kts | 355° |
| 2026-05-05 01:54 | 21.08412 | 105.59438 | 5667 ft | 303 kts | 355° |
| 2026-05-05 01:54 | 21.10415 | 105.59293 | 5536 ft | 273 kts | 355° |
| 2026-05-05 01:55 | 21.12252 | 105.59159 | 5482 ft | 262 kts | 355° |
| 2026-05-05 01:55 | 21.14099 | 105.59024 | 5407 ft | 268 kts | 355° |
| 2026-05-05 01:55 | 21.15964 | 105.58887 | 5291 ft | 268 kts | 355° |
| 2026-05-05 01:55 | 21.17825 | 105.58900 | 5181 ft | 268 kts | 9° |
| 2026-05-05 01:56 | 21.19618 | 105.59483 | 4794 ft | 272 kts | 20° |
| 2026-05-05 01:56 | 21.21399 | 105.60194 | 4400 ft | 273 kts | 21° |
| 2026-05-05 01:56 | 21.23049 | 105.61132 | 4111 ft | 269 kts | 38° |
| 2026-05-05 01:56 | 21.24355 | 105.62517 | 3902 ft | 262 kts | 54° |
| 2026-05-05 01:57 | 21.25245 | 105.64222 | 3481 ft | 265 kts | 70° |
| 2026-05-05 01:57 | 21.25639 | 105.66159 | 2990 ft | 269 kts | 87° |
| 2026-05-05 01:57 | 21.25480 | 105.68150 | 2487 ft | 262 kts | 105° |
| 2026-05-05 01:57 | 21.24981 | 105.69919 | 2136 ft | 232 kts | 107° |
| 2026-05-05 01:58 | 21.24524 | 105.71505 | 1906 ft | 215 kts | 108° |
| 2026-05-05 01:58 | 21.24109 | 105.72958 | 1491 ft | 193 kts | 107° |
| 2026-05-05 01:58 | 21.23743 | 105.74244 | 1248 ft | 166 kts | 108° |
| 2026-05-05 01:58 | 21.23413 | 105.75385 | 848 ft | 155 kts | 107° |
| 2026-05-05 01:59 | 21.23106 | 105.76444 | 525 ft | 143 kts | 108° |
| 2026-05-05 01:59 | 21.22816 | 105.77462 | 316 ft | 145 kts | 109° |
| 2026-05-05 01:59 | 21.22519 | 105.78480 | 123 ft | 141 kts | 107° |
| 2026-05-05 01:59 | 21.22248 | 105.79408 | 50 ft | 117 kts | 107° |
| 2026-05-05 02:00 | 21.22050 | 105.80116 | 49 ft | 86 kts | 106° |
| 2026-05-05 02:00 | 21.21897 | 105.80617 | 50 ft | 41 kts | 107° |
| 2026-05-05 02:00 | 21.21795 | 105.80723 | 49 ft | 16 kts | 191° |
| 2026-05-05 02:00 | 21.21716 | 105.80654 | 49 ft | 15 kts | 274° |
| 2026-05-05 02:01 | 21.21745 | 105.80537 | 48 ft | 17 kts | 287° |
| 2026-05-05 02:01 | 21.21781 | 105.80412 | 49 ft | 19 kts | 287° |
| 2026-05-05 02:01 | 21.21832 | 105.80240 | 49 ft | 27 kts | 288° |
| 2026-05-05 02:01 | 21.21889 | 105.80049 | 49 ft | 24 kts | 287° |
| 2026-05-05 02:02 | 21.21835 | 105.79948 | 49 ft | 14 kts | 247° |
| 2026-05-05 02:02 | 21.21851 | 105.79840 | 46 ft | 16 kts | 289° |
| 2026-05-05 02:02 | 21.21887 | 105.79727 | 49 ft | 16 kts | 288° |
| 2026-05-05 02:02 | 21.21921 | 105.79609 | 49 ft | 17 kts | 286° |
| 2026-05-05 02:03 | 21.21952 | 105.79491 | 47 ft | 15 kts | 271° |
| 2026-05-05 02:03 | 21.21883 | 105.79436 | 49 ft | 8 kts | 197° |
| 2026-05-05 02:03 | 21.21867 | 105.79430 | 49 ft | 0 kts | 197° |